Portada
METAR-TAF:

METAR-TAF

Aeroports :

Gombe Lawanti International Airport

Gombe, Nigèria

latitud: 10-18-19N, longitud: 10-54-31E, altitud: 505 m

Observació

L'informe es va fer fa 3 hores i 34 minuts, a les 08:00 UTC
Vent 5 kt del Nord-Est
Temperatura 21°C
Humitat 13%
Pressió 1016 hPa
Visibilitat: 8000 m

METAR: DNGO 240800Z 05005KT 8000 NSC 21/M08 Q1016

Hora: 12:34 (11:34 UTC)

Pronòstic

L'informe es va fer fa 18 hores i 34 minuts, a les 17:00 UTC
Pronòstic vàlid del 23 a les 18 UTC al 24 a les 24 UTC
Vent 10 kt del Nord-Est
Visibilitat 10 km o més
sense núvols per sota de 1500 mi sense presència de cumulonimbus.
Temporalment
l' 24 a les 07 UTC al 24 a les 13 UTC
Visibilitat: 5000 m
calitja

TAF: DNGO 231700Z 2318/2424 05010KT CAVOK TEMPO 2407/2413 5000 HZ

Observacions i pronòstics meteorològics de més de 4000 aeroports (METAR i TAF).

Les estacions disponibles són els punts grocs i vermells al mapa.

Posi el ratolí al punt desitjat per veure el nom de l'estació.

Feu clic per veure les observacions i els pronòstics meteorològics.

Per canviar el mapa: feu clic els botons verds amb una creu de color negre per apropar; al botó verd amb un guió per allunyar la imatge; o en les fletxes verdes per a mapes adjacents.


METAR-TAF: